Furenas — OZ2085 — position and weather

sailwx.info

Track history (hours):
 
Tides and Currents Weather Stations Pressure Air Temp Water Temp Dewpoint Dewpoint Depression Visibility Wind Speed Wind Dir Waves Ship Positions

Furenas

Last reported at 2015-Mar-27 18:32 UTC. Time now 2015-Mar-27 19:16 UTC.
Position N 52°24' E 004°46'.

Length 137 m; draft 7.7 m.

Type: Tanker. MMSI: 231734000.

Date/timePositionNaut miles runAvg speedWind from/ knotsBaromVisibWave heightAir tempDewpointWater temp
2015-Mar-27 18:32N 52°24' E 004°46'0 0.0
2015-Mar-27 17:32N 52°24' E 004°46'0 0.0
2015-Mar-27 16:26N 52°24' E 004°46'0 0.0
2015-Mar-27 15:32N 52°24' E 004°46'0 0.0
2015-Mar-27 14:29N 52°24' E 004°46'0 0.0
2015-Mar-27 13:32N 52°24' E 004°46'0 0.0
2015-Mar-27 12:32N 52°24' E 004°46'0 0.0
2015-Mar-26 21:15N 52°24' E 004°46'0 0.0
2015-Mar-26 20:33N 52°24' E 004°46'0 0.2
2015-Mar-26 19:33N 52°24' E 004°47'6 6.3
2015-Mar-26 18:33N 52°28' E 004°38'2 2.5
2015-Mar-26 17:33N 52°28' E 004°34'10 9.8
2015-Mar-26 16:33N 52°28' E 004°18'6 5.2
2015-Mar-26 15:29N 52°28' E 004°09'0 0.0
2015-Mar-26 14:29N 52°28' E 004°09'0 0.0
2015-Mar-26 13:32N 52°28' E 004°09'0 0.0
2015-Mar-26 12:32N 52°28' E 004°09'0 0.0
2015-Mar-26 11:29N 52°28' E 004°09'0 0.0
2015-Mar-26 10:32N 52°28' E 004°09'0 0.0
2015-Mar-26 09:29N 52°28' E 004°09'0 0.0
2015-Mar-26 08:32N 52°28' E 004°09'0 0.0
2015-Mar-26 07:32N 52°28' E 004°09'0 0.0
2015-Mar-26 06:32N 52°28' E 004°09'0 0.0
2015-Mar-26 05:32N 52°28' E 004°09'0 0.1
2015-Mar-26 04:32N 52°28' E 004°09'0 0.1
2015-Mar-26 03:32N 52°28' E 004°09'0 0.0
2015-Mar-26 02:23N 52°28' E 004°09'0 0.0
2015-Mar-26 01:32N 52°28' E 004°09'0 0.0
2015-Mar-26 00:29N 52°28' E 004°09'0 0.0
2015-Mar-25 23:29N 52°28' E 004°09'0 0.0
2015-Mar-25 22:32N 52°28' E 004°09'0 0.0
2015-Mar-25 21:32N 52°28' E 004°09'0 0.1
2015-Mar-25 20:26N 52°28' E 004°09'0 0.0
2015-Mar-25 19:26N 52°28' E 004°09'0 0.0
2015-Mar-25 18:26N 52°28' E 004°09'0 0.0
2015-Mar-25 17:26N 52°28' E 004°09'0 0.2
2015-Mar-25 16:29N 52°28' E 004°09'0 0.1
2015-Mar-25 15:31N 52°28' E 004°09'0 0.0
2015-Mar-25 14:31N 52°28' E 004°09'0 0.0
2015-Mar-25 13:31N 52°28' E 004°09'0 0.0
2015-Mar-25 12:31N 52°28' E 004°09'0 0.0
2015-Mar-25 11:31N 52°28' E 004°09'0 0.0
2015-Mar-25 10:31N 52°28' E 004°09'0 0.0
2015-Mar-25 09:31N 52°28' E 004°09'0 0.1
2015-Mar-25 08:31N 52°28' E 004°09'0 0.0
2015-Mar-25 07:31N 52°28' E 004°09'0 0.0
2015-Mar-25 06:25N 52°28' E 004°09'4 4.3
2015-Mar-25 05:34N 52°31' E 004°07'1111.4
2015-Mar-25 04:33N 52°42' E 003°60'2410.5
2015-Mar-25 02:14N 53°05' E 004°13'812.2
2015-Mar-25 01:32N 53°10' E 004°24'1212.1
2015-Mar-25 00:33N 53°21' E 004°32'1111.2
2015-Mar-24 23:33N 53°30' E 004°44'1212.1
2015-Mar-24 22:33N 53°34' E 005°03'1312.1
2015-Mar-24 21:31N 53°38' E 005°23'1212.0
2015-Mar-24 20:33N 53°42' E 005°42'1211.9
2015-Mar-24 19:33N 53°45' E 006°01'4513.2
2015-Mar-24 16:10N 53°57' E 007°14'4 7.4
2015-Mar-24 15:33N 53°58' E 007°22'1212.1
2015-Mar-24 14:34N 54°01' E 007°41'1211.8
2015-Mar-24 13:33N 54°01' E 008°01'2211.1
2015-Mar-24 11:34N 53°57' E 008°38'1211.6
2015-Mar-24 10:34N 53°51' E 008°55'9 8.9
2015-Mar-24 09:33N 53°54' E 009°09'1 1.2
2015-Mar-24 08:33N 53°54' E 009°10'7 7.4
2015-Mar-24 07:33N 54°00' E 009°18'4 4.0
2015-Mar-24 06:33N 54°04' E 009°19'8 7.0
2015-Mar-24 05:28N 54°10' E 009°27'5 4.0
2015-Mar-24 04:19N 54°12' E 009°34'6 6.9
2015-Mar-24 03:24N 54°17' E 009°40'3 3.9
2015-Mar-24 02:33N 54°20' E 009°44'4 3.9
2015-Mar-24 01:33N 54°22' E 009°50'5 5.0
2015-Mar-24 00:33N 54°21' E 009°58'6 6.2
2015-Mar-23 23:33N 54°22' E 010°08'1 1.4
2015-Mar-23 22:33N 54°22' E 010°11'8 7.5
2015-Mar-23 21:33N 54°29' E 010°16'8 7.5
2015-Mar-23 20:33N 54°33' E 010°28'8 7.3
2015-Mar-23 19:31N 54°35' E 010°40'10 8.9
2015-Mar-23 18:25N 54°36' E 010°57'1011.4
2015-Mar-23 17:33N 54°35' E 011°14'1212.3
2015-Mar-23 16:33N 54°30' E 011°33'1211.6
2015-Mar-23 15:33N 54°27' E 011°52'1110.6
2015-Mar-23 14:33N 54°28' E 012°11'1511.3
2015-Mar-23 13:14N 54°41' E 012°25'912.2
2015-Mar-23 12:30N 54°46' E 012°38'1611.5
2015-Mar-23 11:04N 54°47' E 013°06'612.0
2015-Mar-23 10:33N 54°47' E 013°17'1212.0
2015-Mar-23 09:33N 54°46' E 013°38'1212.0
2015-Mar-23 08:33N 54°43' E 013°58'1512.6
2015-Mar-23 07:20N 54°38' E 014°23'1411.9
2015-Mar-23 06:12N 54°39' E 014°46'911.9
2015-Mar-23 05:29N 54°41' E 015°01'12011.9
2015-Mar-22 19:25N 54°59' E 018°26'1012.0
2015-Mar-22 18:33N 54°54' E 018°42'1212.0
2015-Mar-22 17:33N 54°46' E 018°58'1111.3
2015-Mar-22 16:34N 54°36' E 019°07'1211.6
2015-Mar-22 15:33N 54°26' E 018°57'8 8.0
2015-Mar-22 14:33N 54°24' E 018°43'0 0.0
2015-Mar-22 13:33N 54°24' E 018°43'0 0.0
2015-Mar-22 12:33N 54°24' E 018°43'0 0.0
2015-Mar-22 11:33N 54°24' E 018°43'0 0.0
2015-Mar-22 10:33N 54°24' E 018°43'0 0.0
2015-Mar-22 09:33N 54°24' E 018°43'0 0.0
2015-Mar-22 08:33N 54°24' E 018°43'0 0.0
2015-Mar-22 07:33N 54°24' E 018°43'0 0.0
2015-Mar-21 09:21N 54°24' E 018°43'0 0.0
2015-Mar-21 08:33N 54°24' E 018°43'1 0.5
2015-Mar-21 07:33N 54°24' E 018°44'5 5.2
2015-Mar-21 06:33N 54°26' E 018°52'1 0.6
2015-Mar-21 05:31N 54°27' E 018°53'0 0.0
2015-Mar-21 04:31N 54°27' E 018°53'0 0.0
2015-Mar-21 03:31N 54°27' E 018°53'0 0.1
2015-Mar-21 02:31N 54°27' E 018°53'0 0.3
2015-Mar-21 01:34N 54°27' E 018°53'1110.7
2015-Mar-21 00:33N 54°36' E 019°04'1211.7
2015-Mar-20 23:33N 54°47' E 019°04'1312.0
2015-Mar-20 22:30N 54°60' E 019°07'  
Track history (hours):
 
Tides and Currents Weather Stations Pressure Air Temp Water Temp Dewpoint Dewpoint Depression Visibility Wind Speed Wind Dir Waves Ship Positions

Furenas

Last reported at 2015-Mar-27 18:32 UTC. Time now 2015-Mar-27 19:16 UTC.
Position N 52°24' E 004°46'.

Length 137 m; draft 7.7 m.

Type: Tanker. MMSI: 231734000.

Date/timePositionNaut miles runAvg speedWind from/ knotsBaromVisibWave heightAir tempDewpointWater temp
2015-Mar-27 18:32N 52°24' E 004°46'0 0.0
2015-Mar-27 17:32N 52°24' E 004°46'0 0.0
2015-Mar-27 16:26N 52°24' E 004°46'0 0.0
2015-Mar-27 15:32N 52°24' E 004°46'0 0.0
2015-Mar-27 14:29N 52°24' E 004°46'0 0.0
2015-Mar-27 13:32N 52°24' E 004°46'0 0.0
2015-Mar-27 12:32N 52°24' E 004°46'0 0.0
2015-Mar-26 21:15N 52°24' E 004°46'0 0.0
2015-Mar-26 20:33N 52°24' E 004°46'0 0.2
2015-Mar-26 19:33N 52°24' E 004°47'6 6.3
2015-Mar-26 18:33N 52°28' E 004°38'2 2.5
2015-Mar-26 17:33N 52°28' E 004°34'10 9.8
2015-Mar-26 16:33N 52°28' E 004°18'6 5.2
2015-Mar-26 15:29N 52°28' E 004°09'0 0.0
2015-Mar-26 14:29N 52°28' E 004°09'0 0.0
2015-Mar-26 13:32N 52°28' E 004°09'0 0.0
2015-Mar-26 12:32N 52°28' E 004°09'0 0.0
2015-Mar-26 11:29N 52°28' E 004°09'0 0.0
2015-Mar-26 10:32N 52°28' E 004°09'0 0.0
2015-Mar-26 09:29N 52°28' E 004°09'0 0.0
2015-Mar-26 08:32N 52°28' E 004°09'0 0.0
2015-Mar-26 07:32N 52°28' E 004°09'0 0.0
2015-Mar-26 06:32N 52°28' E 004°09'0 0.0
2015-Mar-26 05:32N 52°28' E 004°09'0 0.1
2015-Mar-26 04:32N 52°28' E 004°09'0 0.1
2015-Mar-26 03:32N 52°28' E 004°09'0 0.0
2015-Mar-26 02:23N 52°28' E 004°09'0 0.0
2015-Mar-26 01:32N 52°28' E 004°09'0 0.0
2015-Mar-26 00:29N 52°28' E 004°09'0 0.0
2015-Mar-25 23:29N 52°28' E 004°09'0 0.0
2015-Mar-25 22:32N 52°28' E 004°09'0 0.0
2015-Mar-25 21:32N 52°28' E 004°09'0 0.1
2015-Mar-25 20:26N 52°28' E 004°09'0 0.0
2015-Mar-25 19:26N 52°28' E 004°09'0 0.0
2015-Mar-25 18:26N 52°28' E 004°09'0 0.0
2015-Mar-25 17:26N 52°28' E 004°09'0 0.2
2015-Mar-25 16:29N 52°28' E 004°09'0 0.1
2015-Mar-25 15:31N 52°28' E 004°09'0 0.0
2015-Mar-25 14:31N 52°28' E 004°09'0 0.0
2015-Mar-25 13:31N 52°28' E 004°09'0 0.0
2015-Mar-25 12:31N 52°28' E 004°09'0 0.0
2015-Mar-25 11:31N 52°28' E 004°09'0 0.0
2015-Mar-25 10:31N 52°28' E 004°09'0 0.0
2015-Mar-25 09:31N 52°28' E 004°09'0 0.1
2015-Mar-25 08:31N 52°28' E 004°09'0 0.0
2015-Mar-25 07:31N 52°28' E 004°09'0 0.0
2015-Mar-25 06:25N 52°28' E 004°09'4 4.3
2015-Mar-25 05:34N 52°31' E 004°07'1111.4
2015-Mar-25 04:33N 52°42' E 003°60'2410.5
2015-Mar-25 02:14N 53°05' E 004°13'812.2
2015-Mar-25 01:32N 53°10' E 004°24'1212.1
2015-Mar-25 00:33N 53°21' E 004°32'1111.2
2015-Mar-24 23:33N 53°30' E 004°44'1212.1
2015-Mar-24 22:33N 53°34' E 005°03'1312.1
2015-Mar-24 21:31N 53°38' E 005°23'1212.0
2015-Mar-24 20:33N 53°42' E 005°42'1211.9
2015-Mar-24 19:33N 53°45' E 006°01'4513.2
2015-Mar-24 16:10N 53°57' E 007°14'4 7.4
2015-Mar-24 15:33N 53°58' E 007°22'1212.1
2015-Mar-24 14:34N 54°01' E 007°41'1211.8
2015-Mar-24 13:33N 54°01' E 008°01'2211.1
2015-Mar-24 11:34N 53°57' E 008°38'1211.6
2015-Mar-24 10:34N 53°51' E 008°55'9 8.9
2015-Mar-24 09:33N 53°54' E 009°09'1 1.2
2015-Mar-24 08:33N 53°54' E 009°10'7 7.4
2015-Mar-24 07:33N 54°00' E 009°18'4 4.0
2015-Mar-24 06:33N 54°04' E 009°19'8 7.0
2015-Mar-24 05:28N 54°10' E 009°27'5 4.0
2015-Mar-24 04:19N 54°12' E 009°34'6 6.9
2015-Mar-24 03:24N 54°17' E 009°40'3 3.9
2015-Mar-24 02:33N 54°20' E 009°44'4 3.9
2015-Mar-24 01:33N 54°22' E 009°50'5 5.0
2015-Mar-24 00:33N 54°21' E 009°58'6 6.2
2015-Mar-23 23:33N 54°22' E 010°08'1 1.4
2015-Mar-23 22:33N 54°22' E 010°11'8 7.5
2015-Mar-23 21:33N 54°29' E 010°16'8 7.5
2015-Mar-23 20:33N 54°33' E 010°28'8 7.3
2015-Mar-23 19:31N 54°35' E 010°40'10 8.9
2015-Mar-23 18:25N 54°36' E 010°57'1011.4
2015-Mar-23 17:33N 54°35' E 011°14'1212.3
2015-Mar-23 16:33N 54°30' E 011°33'1211.6
2015-Mar-23 15:33N 54°27' E 011°52'1110.6
2015-Mar-23 14:33N 54°28' E 012°11'1511.3
2015-Mar-23 13:14N 54°41' E 012°25'912.2
2015-Mar-23 12:30N 54°46' E 012°38'1611.5
2015-Mar-23 11:04N 54°47' E 013°06'612.0
2015-Mar-23 10:33N 54°47' E 013°17'1212.0
2015-Mar-23 09:33N 54°46' E 013°38'1212.0
2015-Mar-23 08:33N 54°43' E 013°58'1512.6
2015-Mar-23 07:20N 54°38' E 014°23'1411.9
2015-Mar-23 06:12N 54°39' E 014°46'911.9
2015-Mar-23 05:29N 54°41' E 015°01'12011.9
2015-Mar-22 19:25N 54°59' E 018°26'1012.0
2015-Mar-22 18:33N 54°54' E 018°42'1212.0
2015-Mar-22 17:33N 54°46' E 018°58'1111.3
2015-Mar-22 16:34N 54°36' E 019°07'1211.6
2015-Mar-22 15:33N 54°26' E 018°57'8 8.0
2015-Mar-22 14:33N 54°24' E 018°43'0 0.0
2015-Mar-22 13:33N 54°24' E 018°43'0 0.0
2015-Mar-22 12:33N 54°24' E 018°43'0 0.0
2015-Mar-22 11:33N 54°24' E 018°43'0 0.0
2015-Mar-22 10:33N 54°24' E 018°43'0 0.0
2015-Mar-22 09:33N 54°24' E 018°43'0 0.0
2015-Mar-22 08:33N 54°24' E 018°43'0 0.0
2015-Mar-22 07:33N 54°24' E 018°43'0 0.0
2015-Mar-21 09:21N 54°24' E 018°43'0 0.0
2015-Mar-21 08:33N 54°24' E 018°43'1 0.5
2015-Mar-21 07:33N 54°24' E 018°44'5 5.2
2015-Mar-21 06:33N 54°26' E 018°52'1 0.6
2015-Mar-21 05:31N 54°27' E 018°53'0 0.0
2015-Mar-21 04:31N 54°27' E 018°53'0 0.0
2015-Mar-21 03:31N 54°27' E 018°53'0 0.1
2015-Mar-21 02:31N 54°27' E 018°53'0 0.3
2015-Mar-21 01:34N 54°27' E 018°53'1110.7
2015-Mar-21 00:33N 54°36' E 019°04'1211.7
2015-Mar-20 23:33N 54°47' E 019°04'1312.0
2015-Mar-20 22:30N 54°60' E 019°07'  

Dump ship's entire track history